sensor_id;sensor_type;location;lat;lon;timestamp;P1;durP1;ratioP1;P2;durP2;ratioP2
14377;SDS011;7272;53.668;9.578;2022-09-24T00:00:01;8.97;;;8.27;;
14377;SDS011;7272;53.668;9.578;2022-09-24T00:03:04;11.47;;;10.57;;
14377;SDS011;7272;53.668;9.578;2022-09-24T00:06:06;10.85;;;10.05;;
14377;SDS011;7272;53.668;9.578;2022-09-24T00:09:09;10.80;;;9.17;;
14377;SDS011;7272;53.668;9.578;2022-09-24T00:12:11;8.57;;;7.87;;
14377;SDS011;7272;53.668;9.578;2022-09-24T00:15:15;8.37;;;7.57;;
14377;SDS011;7272;53.668;9.578;2022-09-24T00:18:17;8.80;;;8.00;;
14377;SDS011;7272;53.668;9.578;2022-09-24T00:21:21;8.40;;;7.67;;
14377;SDS011;7272;53.668;9.578;2022-09-24T00:24:26;8.37;;;7.57;;
14377;SDS011;7272;53.668;9.578;2022-09-24T00:27:45;9.17;;;8.37;;
14377;SDS011;7272;53.668;9.578;2022-09-24T00:30:48;7.13;;;6.63;;
14377;SDS011;7272;53.668;9.578;2022-09-24T00:33:51;8.77;;;8.07;;
14377;SDS011;7272;53.668;9.578;2022-09-24T00:36:53;7.83;;;7.17;;
14377;SDS011;7272;53.668;9.578;2022-09-24T00:39:55;8.37;;;7.77;;
14377;SDS011;7272;53.668;9.578;2022-09-24T00:42:57;9.10;;;8.20;;
14377;SDS011;7272;53.668;9.578;2022-09-24T00:46:04;9.77;;;8.97;;
14377;SDS011;7272;53.668;9.578;2022-09-24T00:49:13;9.13;;;8.43;;
14377;SDS011;7272;53.668;9.578;2022-09-24T00:52:17;8.70;;;8.00;;
14377;SDS011;7272;53.668;9.578;2022-09-24T00:55:19;9.90;;;8.90;;
14377;SDS011;7272;53.668;9.578;2022-09-24T00:58:23;9.67;;;8.77;;
14377;SDS011;7272;53.668;9.578;2022-09-24T01:01:28;10.07;;;9.07;;
14377;SDS011;7272;53.668;9.578;2022-09-24T01:04:30;12.25;;;11.27;;
14377;SDS011;7272;53.668;9.578;2022-09-24T01:07:32;10.17;;;9.37;;
14377;SDS011;7272;53.668;9.578;2022-09-24T01:10:38;7.80;;;7.27;;
14377;SDS011;7272;53.668;9.578;2022-09-24T01:13:54;9.70;;;8.90;;
14377;SDS011;7272;53.668;9.578;2022-09-24T01:17:11;10.17;;;9.37;;
14377;SDS011;7272;53.668;9.578;2022-09-24T01:24:06;11.23;;;10.07;;
14377;SDS011;7272;53.668;9.578;2022-09-24T01:27:42;11.27;;;10.27;;
14377;SDS011;7272;53.668;9.578;2022-09-24T01:30:57;16.05;;;14.75;;
14377;SDS011;7272;53.668;9.578;2022-09-24T01:34:05;13.77;;;12.63;;
14377;SDS011;7272;53.668;9.578;2022-09-24T01:37:11;11.73;;;10.73;;
14377;SDS011;7272;53.668;9.578;2022-09-24T01:40:17;12.13;;;9.77;;
14377;SDS011;7272;53.668;9.578;2022-09-24T01:43:23;11.30;;;10.40;;
14377;SDS011;7272;53.668;9.578;2022-09-24T01:46:28;11.37;;;10.47;;
14377;SDS011;7272;53.668;9.578;2022-09-24T01:49:31;9.67;;;8.87;;
14377;SDS011;7272;53.668;9.578;2022-09-24T01:52:33;10.80;;;9.87;;
14377;SDS011;7272;53.668;9.578;2022-09-24T01:55:42;9.90;;;9.03;;
14377;SDS011;7272;53.668;9.578;2022-09-24T01:58:50;14.48;;;13.20;;
14377;SDS011;7272;53.668;9.578;2022-09-24T02:01:56;12.45;;;11.45;;
14377;SDS011;7272;53.668;9.578;2022-09-24T02:05:05;9.20;;;8.40;;
14377;SDS011;7272;53.668;9.578;2022-09-24T02:08:13;8.33;;;7.60;;
14377;SDS011;7272;53.668;9.578;2022-09-24T02:11:19;7.43;;;6.83;;
14377;SDS011;7272;53.668;9.578;2022-09-24T02:14:23;10.67;;;9.87;;
14377;SDS011;7272;53.668;9.578;2022-09-24T02:17:29;9.57;;;8.80;;
14377;SDS011;7272;53.668;9.578;2022-09-24T02:20:35;9.17;;;8.33;;
14377;SDS011;7272;53.668;9.578;2022-09-24T02:23:39;9.10;;;8.33;;
14377;SDS011;7272;53.668;9.578;2022-09-24T02:26:45;10.20;;;9.40;;
14377;SDS011;7272;53.668;9.578;2022-09-24T02:29:47;11.65;;;10.75;;
14377;SDS011;7272;53.668;9.578;2022-09-24T02:32:51;10.93;;;10.03;;
14377;SDS011;7272;53.668;9.578;2022-09-24T02:35:55;10.67;;;9.87;;
14377;SDS011;7272;53.668;9.578;2022-09-24T02:38:56;10.90;;;9.80;;
14377;SDS011;7272;53.668;9.578;2022-09-24T02:41:58;10.57;;;9.67;;
14377;SDS011;7272;53.668;9.578;2022-09-24T02:45:01;11.87;;;10.87;;
14377;SDS011;7272;53.668;9.578;2022-09-24T02:48:05;9.77;;;9.07;;
14377;SDS011;7272;53.668;9.578;2022-09-24T02:51:07;10.60;;;9.77;;
14377;SDS011;7272;53.668;9.578;2022-09-24T02:54:09;10.13;;;9.20;;
14377;SDS011;7272;53.668;9.578;2022-09-24T02:57:11;12.33;;;11.33;;
14377;SDS011;7272;53.668;9.578;2022-09-24T03:00:13;12.37;;;11.27;;
14377;SDS011;7272;53.668;9.578;2022-09-24T03:03:18;10.57;;;9.67;;
14377;SDS011;7272;53.668;9.578;2022-09-24T03:06:20;15.90;;;14.67;;
14377;SDS011;7272;53.668;9.578;2022-09-24T03:09:22;12.77;;;11.67;;
14377;SDS011;7272;53.668;9.578;2022-09-24T03:12:24;13.33;;;12.23;;
14377;SDS011;7272;53.668;9.578;2022-09-24T03:15:26;12.07;;;11.00;;
14377;SDS011;7272;53.668;9.578;2022-09-24T03:18:30;13.57;;;12.27;;
14377;SDS011;7272;53.668;9.578;2022-09-24T03:21:32;13.67;;;12.37;;
14377;SDS011;7272;53.668;9.578;2022-09-24T03:24:34;13.23;;;12.00;;
14377;SDS011;7272;53.668;9.578;2022-09-24T03:27:36;12.10;;;10.90;;
14377;SDS011;7272;53.668;9.578;2022-09-24T03:30:38;10.77;;;9.87;;
14377;SDS011;7272;53.668;9.578;2022-09-24T03:33:59;16.33;;;15.13;;
14377;SDS011;7272;53.668;9.578;2022-09-24T03:37:00;16.23;;;14.83;;
14377;SDS011;7272;53.668;9.578;2022-09-24T03:40:03;14.07;;;12.87;;
14377;SDS011;7272;53.668;9.578;2022-09-24T03:43:07;13.20;;;12.10;;
14377;SDS011;7272;53.668;9.578;2022-09-24T03:46:09;13.30;;;12.10;;
14377;SDS011;7272;53.668;9.578;2022-09-24T03:49:13;12.80;;;11.80;;
14377;SDS011;7272;53.668;9.578;2022-09-24T03:52:16;14.00;;;12.80;;
14377;SDS011;7272;53.668;9.578;2022-09-24T03:55:18;12.93;;;11.80;;
14377;SDS011;7272;53.668;9.578;2022-09-24T03:58:19;14.50;;;13.30;;
14377;SDS011;7272;53.668;9.578;2022-09-24T04:01:22;15.73;;;14.33;;
14377;SDS011;7272;53.668;9.578;2022-09-24T04:04:25;13.57;;;12.47;;
14377;SDS011;7272;53.668;9.578;2022-09-24T04:07:27;21.95;;;20.15;;
14377;SDS011;7272;53.668;9.578;2022-09-24T04:10:29;16.43;;;15.03;;
14377;SDS011;7272;53.668;9.578;2022-09-24T04:13:31;15.53;;;14.20;;
14377;SDS011;7272;53.668;9.578;2022-09-24T04:16:33;14.17;;;12.97;;
14377;SDS011;7272;53.668;9.578;2022-09-24T04:19:36;15.27;;;13.87;;
14377;SDS011;7272;53.668;9.578;2022-09-24T04:22:38;15.33;;;14.03;;
14377;SDS011;7272;53.668;9.578;2022-09-24T04:25:40;14.87;;;13.57;;
14377;SDS011;7272;53.668;9.578;2022-09-24T04:28:42;15.63;;;14.20;;
14377;SDS011;7272;53.668;9.578;2022-09-24T04:31:44;21.52;;;19.83;;
14377;SDS011;7272;53.668;9.578;2022-09-24T04:34:47;21.58;;;19.88;;
14377;SDS011;7272;53.668;9.578;2022-09-24T04:37:49;14.80;;;13.63;;
14377;SDS011;7272;53.668;9.578;2022-09-24T04:40:51;15.60;;;14.30;;
14377;SDS011;7272;53.668;9.578;2022-09-24T04:43:55;18.03;;;16.33;;
14377;SDS011;7272;53.668;9.578;2022-09-24T04:46:57;18.43;;;16.80;;
14377;SDS011;7272;53.668;9.578;2022-09-24T04:50:03;18.87;;;16.97;;
14377;SDS011;7272;53.668;9.578;2022-09-24T04:53:06;16.57;;;15.07;;
14377;SDS011;7272;53.668;9.578;2022-09-24T04:56:08;17.27;;;15.67;;
14377;SDS011;7272;53.668;9.578;2022-09-24T04:59:11;15.13;;;13.80;;
14377;SDS011;7272;53.668;9.578;2022-09-24T05:02:13;16.80;;;15.23;;
14377;SDS011;7272;53.668;9.578;2022-09-24T05:05:17;23.63;;;21.73;;
14377;SDS011;7272;53.668;9.578;2022-09-24T05:08:19;17.53;;;16.13;;
14377;SDS011;7272;53.668;9.578;2022-09-24T05:11:21;16.97;;;15.37;;
14377;SDS011;7272;53.668;9.578;2022-09-24T05:14:23;16.63;;;15.03;;
14377;SDS011;7272;53.668;9.578;2022-09-24T05:17:24;17.53;;;16.00;;
14377;SDS011;7272;53.668;9.578;2022-09-24T05:20:28;18.17;;;16.50;;
14377;SDS011;7272;53.668;9.578;2022-09-24T05:23:30;18.10;;;16.30;;
14377;SDS011;7272;53.668;9.578;2022-09-24T05:26:31;17.13;;;15.33;;
14377;SDS011;7272;53.668;9.578;2022-09-24T05:29:51;17.93;;;16.33;;
14377;SDS011;7272;53.668;9.578;2022-09-24T05:32:53;22.27;;;20.27;;
14377;SDS011;7272;53.668;9.578;2022-09-24T05:35:56;20.83;;;18.83;;
14377;SDS011;7272;53.668;9.578;2022-09-24T05:38:58;18.73;;;17.03;;
14377;SDS011;7272;53.668;9.578;2022-09-24T05:42:00;18.40;;;16.70;;
14377;SDS011;7272;53.668;9.578;2022-09-24T05:45:03;18.60;;;16.80;;
14377;SDS011;7272;53.668;9.578;2022-09-24T05:48:05;16.77;;;15.27;;
14377;SDS011;7272;53.668;9.578;2022-09-24T05:51:08;16.73;;;15.13;;
14377;SDS011;7272;53.668;9.578;2022-09-24T05:54:10;16.47;;;14.97;;
14377;SDS011;7272;53.668;9.578;2022-09-24T05:57:12;16.90;;;15.30;;
14377;SDS011;7272;53.668;9.578;2022-09-24T06:00:14;16.37;;;14.87;;
14377;SDS011;7272;53.668;9.578;2022-09-24T06:03:17;17.43;;;15.83;;
14377;SDS011;7272;53.668;9.578;2022-09-24T06:06:21;23.93;;;21.87;;
14377;SDS011;7272;53.668;9.578;2022-09-24T06:09:23;22.73;;;20.83;;
14377;SDS011;7272;53.668;9.578;2022-09-24T06:12:25;16.00;;;14.60;;
14377;SDS011;7272;53.668;9.578;2022-09-24T06:15:27;15.60;;;14.20;;
14377;SDS011;7272;53.668;9.578;2022-09-24T06:18:31;15.53;;;13.93;;
14377;SDS011;7272;53.668;9.578;2022-09-24T06:21:35;16.27;;;14.80;;
14377;SDS011;7272;53.668;9.578;2022-09-24T06:24:37;16.37;;;14.87;;
14377;SDS011;7272;53.668;9.578;2022-09-24T06:27:39;16.67;;;15.07;;
14377;SDS011;7272;53.668;9.578;2022-09-24T06:30:41;17.57;;;15.87;;
14377;SDS011;7272;53.668;9.578;2022-09-24T06:33:43;14.63;;;13.23;;
14377;SDS011;7272;53.668;9.578;2022-09-24T06:36:46;15.93;;;14.40;;
14377;SDS011;7272;53.668;9.578;2022-09-24T06:39:48;19.08;;;17.27;;
14377;SDS011;7272;53.668;9.578;2022-09-24T06:42:50;16.00;;;14.40;;
14377;SDS011;7272;53.668;9.578;2022-09-24T06:45:53;16.80;;;15.17;;
14377;SDS011;7272;53.668;9.578;2022-09-24T06:48:56;14.67;;;13.27;;
14377;SDS011;7272;53.668;9.578;2022-09-24T06:51:59;13.10;;;11.80;;
14377;SDS011;7272;53.668;9.578;2022-09-24T06:55:01;14.53;;;13.03;;
14377;SDS011;7272;53.668;9.578;2022-09-24T06:58:03;12.53;;;11.33;;
14377;SDS011;7272;53.668;9.578;2022-09-24T07:01:07;14.37;;;12.97;;
14377;SDS011;7272;53.668;9.578;2022-09-24T07:04:09;13.73;;;12.13;;
14377;SDS011;7272;53.668;9.578;2022-09-24T07:07:12;19.88;;;18.15;;
14377;SDS011;7272;53.668;9.578;2022-09-24T07:10:29;18.98;;;17.30;;
14377;SDS011;7272;53.668;9.578;2022-09-24T07:13:31;14.33;;;13.00;;
14377;SDS011;7272;53.668;9.578;2022-09-24T07:16:33;13.10;;;11.80;;
14377;SDS011;7272;53.668;9.578;2022-09-24T07:19:35;12.53;;;11.33;;
14377;SDS011;7272;53.668;9.578;2022-09-24T07:22:38;13.53;;;12.23;;
14377;SDS011;7272;53.668;9.578;2022-09-24T07:25:42;13.83;;;12.33;;
14377;SDS011;7272;53.668;9.578;2022-09-24T07:28:44;10.97;;;9.90;;
14377;SDS011;7272;53.668;9.578;2022-09-24T07:31:45;14.03;;;12.67;;
14377;SDS011;7272;53.668;9.578;2022-09-24T07:34:47;12.73;;;11.53;;
14377;SDS011;7272;53.668;9.578;2022-09-24T07:37:56;12.70;;;11.60;;
14377;SDS011;7272;53.668;9.578;2022-09-24T07:40:58;18.60;;;16.90;;
14377;SDS011;7272;53.668;9.578;2022-09-24T07:44:01;17.00;;;15.63;;
14377;SDS011;7272;53.668;9.578;2022-09-24T07:47:03;13.53;;;12.27;;
14377;SDS011;7272;53.668;9.578;2022-09-24T07:50:05;13.77;;;12.43;;
14377;SDS011;7272;53.668;9.578;2022-09-24T07:53:09;13.50;;;12.10;;
14377;SDS011;7272;53.668;9.578;2022-09-24T07:56:12;15.00;;;13.60;;
14377;SDS011;7272;53.668;9.578;2022-09-24T07:59:13;14.93;;;13.40;;
14377;SDS011;7272;53.668;9.578;2022-09-24T08:02:16;15.67;;;14.17;;
14377;SDS011;7272;53.668;9.578;2022-09-24T08:05:18;14.00;;;12.70;;
14377;SDS011;7272;53.668;9.578;2022-09-24T08:08:21;16.77;;;15.03;;
14377;SDS011;7272;53.668;9.578;2022-09-24T08:11:23;21.55;;;19.75;;
14377;SDS011;7272;53.668;9.578;2022-09-24T08:14:25;22.40;;;20.45;;
14377;SDS011;7272;53.668;9.578;2022-09-24T08:17:27;16.47;;;15.00;;
14377;SDS011;7272;53.668;9.578;2022-09-24T08:20:30;16.37;;;14.67;;
14377;SDS011;7272;53.668;9.578;2022-09-24T08:23:35;16.60;;;15.03;;
14377;SDS011;7272;53.668;9.578;2022-09-24T08:26:39;16.03;;;14.47;;
14377;SDS011;7272;53.668;9.578;2022-09-24T08:29:41;15.20;;;13.80;;
14377;SDS011;7272;53.668;9.578;2022-09-24T08:32:45;15.20;;;13.80;;
14377;SDS011;7272;53.668;9.578;2022-09-24T08:35:47;16.33;;;14.73;;
14377;SDS011;7272;53.668;9.578;2022-09-24T08:38:53;17.07;;;15.27;;
14377;SDS011;7272;53.668;9.578;2022-09-24T08:41:55;17.33;;;15.70;;
14377;SDS011;7272;53.668;9.578;2022-09-24T08:45:01;23.73;;;21.63;;
14377;SDS011;7272;53.668;9.578;2022-09-24T08:48:22;17.10;;;15.50;;
14377;SDS011;7272;53.668;9.578;2022-09-24T08:51:29;17.10;;;15.47;;
14377;SDS011;7272;53.668;9.578;2022-09-24T08:54:38;18.00;;;16.20;;
14377;SDS011;7272;53.668;9.578;2022-09-24T08:57:45;17.43;;;15.93;;
14377;SDS011;7272;53.668;9.578;2022-09-24T09:00:56;17.77;;;16.07;;
14377;SDS011;7272;53.668;9.578;2022-09-24T09:04:20;17.10;;;15.50;;
14377;SDS011;7272;53.668;9.578;2022-09-24T09:07:29;16.20;;;14.67;;
14377;SDS011;7272;53.668;9.578;2022-09-24T09:10:37;18.67;;;16.80;;
14377;SDS011;7272;53.668;9.578;2022-09-24T09:13:43;22.67;;;20.77;;
14377;SDS011;7272;53.668;9.578;2022-09-24T09:16:52;17.90;;;16.20;;
14377;SDS011;7272;53.668;9.578;2022-09-24T09:19:59;16.37;;;14.77;;
14377;SDS011;7272;53.668;9.578;2022-09-24T09:23:09;16.73;;;15.07;;
14377;SDS011;7272;53.668;9.578;2022-09-24T09:26:15;16.87;;;15.40;;
14377;SDS011;7272;53.668;9.578;2022-09-24T09:29:19;16.77;;;15.30;;
14377;SDS011;7272;53.668;9.578;2022-09-24T09:32:26;16.37;;;14.87;;
14377;SDS011;7272;53.668;9.578;2022-09-24T09:35:40;16.30;;;14.80;;
14377;SDS011;7272;53.668;9.578;2022-09-24T09:38:48;17.33;;;15.73;;
14377;SDS011;7272;53.668;9.578;2022-09-24T09:42:03;22.05;;;20.20;;
14377;SDS011;7272;53.668;9.578;2022-09-24T09:45:22;24.08;;;21.90;;
14377;SDS011;7272;53.668;9.578;2022-09-24T09:48:36;17.30;;;15.73;;
14377;SDS011;7272;53.668;9.578;2022-09-24T09:51:43;17.93;;;16.23;;
14377;SDS011;7272;53.668;9.578;2022-09-24T09:54:48;16.00;;;14.60;;
14377;SDS011;7272;53.668;9.578;2022-09-24T09:57:51;16.80;;;15.23;;
14377;SDS011;7272;53.668;9.578;2022-09-24T10:01:02;17.57;;;15.97;;
14377;SDS011;7272;53.668;9.578;2022-09-24T10:04:06;20.40;;;18.53;;
14377;SDS011;7272;53.668;9.578;2022-09-24T10:07:28;16.93;;;15.23;;
14377;SDS011;7272;53.668;9.578;2022-09-24T10:10:31;26.08;;;23.98;;
14377;SDS011;7272;53.668;9.578;2022-09-24T10:13:35;24.40;;;22.40;;
14377;SDS011;7272;53.668;9.578;2022-09-24T10:16:37;18.50;;;16.97;;
14377;SDS011;7272;53.668;9.578;2022-09-24T10:19:40;17.63;;;16.07;;
14377;SDS011;7272;53.668;9.578;2022-09-24T10:22:48;18.40;;;16.60;;
14377;SDS011;7272;53.668;9.578;2022-09-24T10:25:54;17.20;;;15.50;;
14377;SDS011;7272;53.668;9.578;2022-09-24T10:29:02;19.23;;;17.43;;
14377;SDS011;7272;53.668;9.578;2022-09-24T10:32:23;16.23;;;14.67;;
14377;SDS011;7272;53.668;9.578;2022-09-24T10:35:29;16.93;;;15.33;;
14377;SDS011;7272;53.668;9.578;2022-09-24T10:38:34;18.27;;;16.67;;
14377;SDS011;7272;53.668;9.578;2022-09-24T10:41:36;18.20;;;16.50;;
14377;SDS011;7272;53.668;9.578;2022-09-24T10:44:47;24.08;;;22.08;;
14377;SDS011;7272;53.668;9.578;2022-09-24T10:47:50;18.30;;;16.70;;
14377;SDS011;7272;53.668;9.578;2022-09-24T10:51:00;19.70;;;17.80;;
14377;SDS011;7272;53.668;9.578;2022-09-24T10:54:16;18.10;;;16.50;;
14377;SDS011;7272;53.668;9.578;2022-09-24T10:57:33;19.43;;;17.63;;
14377;SDS011;7272;53.668;9.578;2022-09-24T11:00:43;20.53;;;18.47;;
14377;SDS011;7272;53.668;9.578;2022-09-24T11:03:52;19.47;;;17.63;;
14377;SDS011;7272;53.668;9.578;2022-09-24T11:07:22;20.47;;;18.43;;
14377;SDS011;7272;53.668;9.578;2022-09-24T11:10:55;20.30;;;18.30;;
14377;SDS011;7272;53.668;9.578;2022-09-24T11:14:10;19.73;;;17.83;;
14377;SDS011;7272;53.668;9.578;2022-09-24T11:17:29;21.10;;;18.90;;
14377;SDS011;7272;53.668;9.578;2022-09-24T11:20:34;26.47;;;24.17;;
14377;SDS011;7272;53.668;9.578;2022-09-24T11:23:43;21.70;;;19.60;;
14377;SDS011;7272;53.668;9.578;2022-09-24T11:26:59;20.77;;;18.70;;
14377;SDS011;7272;53.668;9.578;2022-09-24T11:30:15;21.57;;;19.33;;
14377;SDS011;7272;53.668;9.578;2022-09-24T11:33:24;20.93;;;18.83;;
14377;SDS011;7272;53.668;9.578;2022-09-24T11:40:09;25.48;;;23.17;;
14377;SDS011;7272;53.668;9.578;2022-09-24T11:43:23;21.00;;;19.00;;
14377;SDS011;7272;53.668;9.578;2022-09-24T11:46:52;20.07;;;18.17;;
14377;SDS011;7272;53.668;9.578;2022-09-24T11:50:14;21.13;;;19.13;;
14377;SDS011;7272;53.668;9.578;2022-09-24T11:53:24;18.77;;;17.07;;
14377;SDS011;7272;53.668;9.578;2022-09-24T11:56:35;19.53;;;17.63;;
14377;SDS011;7272;53.668;9.578;2022-09-24T11:59:43;19.40;;;17.60;;
14377;SDS011;7272;53.668;9.578;2022-09-24T12:02:51;19.30;;;17.53;;
14377;SDS011;7272;53.668;9.578;2022-09-24T12:06:01;20.37;;;18.43;;
14377;SDS011;7272;53.668;9.578;2022-09-24T12:09:08;20.87;;;18.87;;
14377;SDS011;7272;53.668;9.578;2022-09-24T12:12:17;18.87;;;16.87;;
14377;SDS011;7272;53.668;9.578;2022-09-24T12:15:23;20.47;;;18.47;;
14377;SDS011;7272;53.668;9.578;2022-09-24T12:18:32;20.47;;;18.43;;
14377;SDS011;7272;53.668;9.578;2022-09-24T12:21:42;22.07;;;19.17;;
14377;SDS011;7272;53.668;9.578;2022-09-24T12:24:48;20.17;;;18.27;;
14377;SDS011;7272;53.668;9.578;2022-09-24T12:27:52;20.27;;;18.17;;
14377;SDS011;7272;53.668;9.578;2022-09-24T12:30:54;29.00;;;26.50;;
14377;SDS011;7272;53.668;9.578;2022-09-24T12:34:25;20.80;;;18.90;;
14377;SDS011;7272;53.668;9.578;2022-09-24T12:37:40;21.10;;;19.03;;
14377;SDS011;7272;53.668;9.578;2022-09-24T12:41:20;20.20;;;18.30;;
14377;SDS011;7272;53.668;9.578;2022-09-24T12:44:28;23.27;;;21.03;;
14377;SDS011;7272;53.668;9.578;2022-09-24T12:47:37;20.43;;;18.53;;
14377;SDS011;7272;53.668;9.578;2022-09-24T12:50:53;21.30;;;19.13;;
14377;SDS011;7272;53.668;9.578;2022-09-24T12:54:04;21.57;;;19.53;;
14377;SDS011;7272;53.668;9.578;2022-09-24T12:57:12;21.65;;;19.65;;
14377;SDS011;7272;53.668;9.578;2022-09-24T13:03:59;20.70;;;18.70;;
14377;SDS011;7272;53.668;9.578;2022-09-24T13:10:28;18.87;;;16.97;;
14377;SDS011;7272;53.668;9.578;2022-09-24T13:13:32;19.83;;;17.93;;
14377;SDS011;7272;53.668;9.578;2022-09-24T13:16:40;19.03;;;17.27;;
14377;SDS011;7272;53.668;9.578;2022-09-24T13:19:46;19.00;;;17.20;;
14377;SDS011;7272;53.668;9.578;2022-09-24T13:22:56;19.80;;;18.00;;
14377;SDS011;7272;53.668;9.578;2022-09-24T13:26:02;16.03;;;14.63;;
14377;SDS011;7272;53.668;9.578;2022-09-24T13:29:20;17.90;;;16.40;;
14377;SDS011;7272;53.668;9.578;2022-09-24T13:32:24;16.30;;;14.90;;
14377;SDS011;7272;53.668;9.578;2022-09-24T13:35:29;17.10;;;15.53;;
14377;SDS011;7272;53.668;9.578;2022-09-24T13:38:34;15.57;;;14.27;;
14377;SDS011;7272;53.668;9.578;2022-09-24T13:41:41;15.70;;;14.37;;
14377;SDS011;7272;53.668;9.578;2022-09-24T13:44:49;15.03;;;13.63;;
14377;SDS011;7272;53.668;9.578;2022-09-24T13:47:55;16.73;;;15.30;;
14377;SDS011;7272;53.668;9.578;2022-09-24T13:50:59;15.33;;;14.07;;
14377;SDS011;7272;53.668;9.578;2022-09-24T13:54:05;14.87;;;13.53;;
14377;SDS011;7272;53.668;9.578;2022-09-24T13:57:18;16.50;;;15.00;;
14377;SDS011;7272;53.668;9.578;2022-09-24T14:00:22;15.67;;;14.27;;
14377;SDS011;7272;53.668;9.578;2022-09-24T14:03:25;15.87;;;14.47;;
14377;SDS011;7272;53.668;9.578;2022-09-24T14:06:31;16.63;;;15.13;;
14377;SDS011;7272;53.668;9.578;2022-09-24T14:09:35;16.90;;;15.40;;
14377;SDS011;7272;53.668;9.578;2022-09-24T14:12:39;14.50;;;13.30;;
14377;SDS011;7272;53.668;9.578;2022-09-24T14:15:48;15.87;;;14.47;;
14377;SDS011;7272;53.668;9.578;2022-09-24T14:19:01;15.77;;;14.27;;
14377;SDS011;7272;53.668;9.578;2022-09-24T14:22:04;15.20;;;13.90;;
14377;SDS011;7272;53.668;9.578;2022-09-24T14:25:13;15.37;;;13.97;;
14377;SDS011;7272;53.668;9.578;2022-09-24T14:28:18;14.13;;;12.83;;
14377;SDS011;7272;53.668;9.578;2022-09-24T14:31:21;15.80;;;14.40;;
14377;SDS011;7272;53.668;9.578;2022-09-24T14:34:24;13.97;;;12.77;;
14377;SDS011;7272;53.668;9.578;2022-09-24T14:37:28;12.27;;;11.27;;
14377;SDS011;7272;53.668;9.578;2022-09-24T14:40:37;14.40;;;13.10;;
14377;SDS011;7272;53.668;9.578;2022-09-24T14:43:44;14.07;;;12.77;;
14377;SDS011;7272;53.668;9.578;2022-09-24T14:46:48;13.87;;;12.57;;
14377;SDS011;7272;53.668;9.578;2022-09-24T14:49:52;15.97;;;14.47;;
14377;SDS011;7272;53.668;9.578;2022-09-24T14:52:55;13.50;;;12.30;;
14377;SDS011;7272;53.668;9.578;2022-09-24T14:56:00;10.67;;;9.70;;
14377;SDS011;7272;53.668;9.578;2022-09-24T14:59:13;11.80;;;10.90;;
14377;SDS011;7272;53.668;9.578;2022-09-24T15:02:18;11.67;;;10.70;;
14377;SDS011;7272;53.668;9.578;2022-09-24T15:05:23;12.57;;;11.40;;
14377;SDS011;7272;53.668;9.578;2022-09-24T15:08:26;11.63;;;10.73;;
14377;SDS011;7272;53.668;9.578;2022-09-24T15:11:29;10.37;;;9.57;;
14377;SDS011;7272;53.668;9.578;2022-09-24T15:14:34;12.97;;;11.93;;
14377;SDS011;7272;53.668;9.578;2022-09-24T15:17:36;13.07;;;12.00;;
14377;SDS011;7272;53.668;9.578;2022-09-24T15:20:38;13.90;;;12.70;;
14377;SDS011;7272;53.668;9.578;2022-09-24T15:23:40;14.87;;;13.53;;
14377;SDS011;7272;53.668;9.578;2022-09-24T15:26:42;13.17;;;12.07;;
14377;SDS011;7272;53.668;9.578;2022-09-24T15:29:47;15.77;;;14.47;;
14377;SDS011;7272;53.668;9.578;2022-09-24T15:32:50;18.27;;;16.88;;
14377;SDS011;7272;53.668;9.578;2022-09-24T15:35:52;18.17;;;16.77;;
14377;SDS011;7272;53.668;9.578;2022-09-24T15:38:56;14.23;;;13.03;;
14377;SDS011;7272;53.668;9.578;2022-09-24T15:42:01;13.67;;;12.37;;
14377;SDS011;7272;53.668;9.578;2022-09-24T15:45:08;12.20;;;11.20;;
14377;SDS011;7272;53.668;9.578;2022-09-24T15:48:15;11.57;;;10.57;;
14377;SDS011;7272;53.668;9.578;2022-09-24T15:51:18;11.67;;;10.67;;
14377;SDS011;7272;53.668;9.578;2022-09-24T15:54:21;14.20;;;12.87;;
14377;SDS011;7272;53.668;9.578;2022-09-24T15:57:24;12.40;;;11.35;;
14377;SDS011;7272;53.668;9.578;2022-09-24T16:00:27;11.50;;;10.60;;
14377;SDS011;7272;53.668;9.578;2022-09-24T16:03:29;10.30;;;9.40;;
14377;SDS011;7272;53.668;9.578;2022-09-24T16:06:32;12.03;;;11.07;;
14377;SDS011;7272;53.668;9.578;2022-09-24T16:09:35;13.57;;;12.37;;
14377;SDS011;7272;53.668;9.578;2022-09-24T16:12:37;12.67;;;11.67;;
14377;SDS011;7272;53.668;9.578;2022-09-24T16:15:41;12.43;;;11.43;;
14377;SDS011;7272;53.668;9.578;2022-09-24T16:18:43;13.13;;;12.03;;
14377;SDS011;7272;53.668;9.578;2022-09-24T16:21:45;13.13;;;12.03;;
14377;SDS011;7272;53.668;9.578;2022-09-24T16:24:47;20.88;;;19.17;;
14377;SDS011;7272;53.668;9.578;2022-09-24T16:27:49;21.17;;;19.38;;
14377;SDS011;7272;53.668;9.578;2022-09-24T16:30:52;16.17;;;14.77;;
14377;SDS011;7272;53.668;9.578;2022-09-24T16:33:54;14.33;;;13.13;;
14377;SDS011;7272;53.668;9.578;2022-09-24T16:36:56;13.03;;;11.93;;
14377;SDS011;7272;53.668;9.578;2022-09-24T16:39:58;14.50;;;13.27;;
14377;SDS011;7272;53.668;9.578;2022-09-24T16:43:00;15.80;;;14.37;;
14377;SDS011;7272;53.668;9.578;2022-09-24T16:46:04;16.80;;;15.37;;
14377;SDS011;7272;53.668;9.578;2022-09-24T16:49:07;20.53;;;18.70;;
14377;SDS011;7272;53.668;9.578;2022-09-24T16:52:09;23.65;;;21.75;;
14377;SDS011;7272;53.668;9.578;2022-09-24T16:55:11;20.73;;;18.90;;
14377;SDS011;7272;53.668;9.578;2022-09-24T16:58:13;19.47;;;17.77;;
14377;SDS011;7272;53.668;9.578;2022-09-24T17:01:17;18.87;;;17.23;;
14377;SDS011;7272;53.668;9.578;2022-09-24T17:04:21;19.10;;;17.40;;
14377;SDS011;7272;53.668;9.578;2022-09-24T17:07:23;20.10;;;18.20;;
14377;SDS011;7272;53.668;9.578;2022-09-24T17:10:24;22.00;;;19.90;;
14377;SDS011;7272;53.668;9.578;2022-09-24T17:13:25;22.87;;;20.70;;
14377;SDS011;7272;53.668;9.578;2022-09-24T17:16:28;28.77;;;26.48;;
14377;SDS011;7272;53.668;9.578;2022-09-24T17:19:31;19.60;;;17.93;;
14377;SDS011;7272;53.668;9.578;2022-09-24T17:22:32;19.87;;;18.10;;
14377;SDS011;7272;53.668;9.578;2022-09-24T17:25:34;21.67;;;19.67;;
14377;SDS011;7272;53.668;9.578;2022-09-24T17:28:37;22.90;;;20.87;;
14377;SDS011;7272;53.668;9.578;2022-09-24T17:31:42;16.97;;;15.47;;
14377;SDS011;7272;53.668;9.578;2022-09-24T17:34:44;19.87;;;17.93;;
14377;SDS011;7272;53.668;9.578;2022-09-24T17:37:46;17.80;;;16.27;;
14377;SDS011;7272;53.668;9.578;2022-09-24T17:40:51;29.00;;;26.47;;
14377;SDS011;7272;53.668;9.578;2022-09-24T17:43:54;29.65;;;27.20;;
14377;SDS011;7272;53.668;9.578;2022-09-24T17:46:59;25.70;;;23.17;;
14377;SDS011;7272;53.668;9.578;2022-09-24T17:50:01;18.43;;;16.73;;
14377;SDS011;7272;53.668;9.578;2022-09-24T17:53:02;22.03;;;20.03;;
14377;SDS011;7272;53.668;9.578;2022-09-24T17:56:05;14.63;;;13.43;;
14377;SDS011;7272;53.668;9.578;2022-09-24T17:59:08;17.50;;;15.97;;
14377;SDS011;7272;53.668;9.578;2022-09-24T18:02:13;18.60;;;16.80;;
14377;SDS011;7272;53.668;9.578;2022-09-24T18:05:15;20.80;;;18.80;;
14377;SDS011;7272;53.668;9.578;2022-09-24T18:08:17;20.97;;;19.13;;
14377;SDS011;7272;53.668;9.578;2022-09-24T18:11:19;18.83;;;17.10;;
14377;SDS011;7272;53.668;9.578;2022-09-24T18:14:22;21.50;;;19.53;;
14377;SDS011;7272;53.668;9.578;2022-09-24T18:17:26;24.27;;;22.07;;
14377;SDS011;7272;53.668;9.578;2022-09-24T18:20:28;23.20;;;21.07;;
14377;SDS011;7272;53.668;9.578;2022-09-24T18:23:31;21.87;;;19.87;;
14377;SDS011;7272;53.668;9.578;2022-09-24T18:26:34;21.37;;;19.37;;
14377;SDS011;7272;53.668;9.578;2022-09-24T18:29:38;22.13;;;20.13;;
14377;SDS011;7272;53.668;9.578;2022-09-24T18:32:44;22.23;;;20.23;;
14377;SDS011;7272;53.668;9.578;2022-09-24T18:35:46;31.60;;;29.00;;
14377;SDS011;7272;53.668;9.578;2022-09-24T18:38:48;20.03;;;18.33;;